Time;durP1;ratioP1;P1;durP2;ratioP2;P2;SDS_P1;SDS_P2;PMS_P1;PMS_P2;Temp;Humidity;BMP_temperature;BMP_pressure;BME280_temperature;BME280_humidity;BME280_pressure;Samples;Min_cycle;Max_cycle;Signal;HPM_P1;HPM_P2
2022/01/31 00:02:15;;;;;;;43.40;7.25;;;;;;;;;;6195664;23;20365;-94
2022/01/31 00:04:42;;;;;;;42.67;6.28;;;;;;;;;;6192767;23;20451;-94
2022/01/31 00:07:08;;;;;;;57.42;8.30;;;;;;;;;;6195788;23;20086;-93
2022/01/31 00:09:33;;;;;;;37.05;7.18;;;;;;;;;;6194376;23;20017;-93
2022/01/31 00:12:03;;;;;;;40.38;5.95;;;;;;;;;;6193899;23;19997;-94
2022/01/31 00:14:37;;;;;;;44.03;8.50;;;;;;;;;;6200206;23;20004;-94
2022/01/31 00:17:14;;;;;;;35.25;6.80;;;;;;;;;;6200118;23;20001;-94
2022/01/31 00:19:56;;;;;;;40.03;6.75;;;;;;;;;;6200869;23;20076;-94
2022/01/31 00:22:21;;;;;;;36.80;7.10;;;;;;;;;;6174589;23;20015;-94
2022/01/31 00:24:49;;;;;;;38.05;6.93;;;;;;;;;;6202438;23;20005;-94
2022/01/31 00:27:14;;;;;;;37.85;7.03;;;;;;;;;;6196271;23;20005;-94
2022/01/31 00:29:45;;;;;;;40.13;7.00;;;;;;;;;;6204515;23;20024;-95
2022/01/31 00:32:18;;;;;;;44.60;6.75;;;;;;;;;;6202297;23;20001;-94
2022/01/31 00:34:52;;;;;;;38.92;6.35;;;;;;;;;;6201043;22;20108;-94
2022/01/31 00:37:20;;;;;;;40.65;7.95;;;;;;;;;;6201184;23;20036;-94
2022/01/31 00:39:53;;;;;;;48.22;6.55;;;;;;;;;;6205669;23;20010;-93
2022/01/31 00:42:20;;;;;;;41.35;6.50;;;;;;;;;;6202787;23;20028;-94
2022/01/31 00:50:08;;;;;;;45.80;7.57;;;;;;;;;;6201740;23;20032;-94
2022/01/31 00:52:38;;;;;;;41.00;7.53;;;;;;;;;;6202059;23;20024;-94
2022/01/31 00:55:06;;;;;;;39.45;7.18;;;;;;;;;;6197903;23;20005;-93
2022/01/31 00:57:40;;;;;;;50.28;7.22;;;;;;;;;;6196367;23;20434;-94
2022/01/31 01:00:11;;;;;;;46.65;6.95;;;;;;;;;;6194082;23;20052;-94
2022/01/31 01:02:40;;;;;;;41.03;7.18;;;;;;;;;;6193398;23;20063;-94
2022/01/31 01:05:09;;;;;;;49.95;8.57;;;;;;;;;;6194252;23;20756;-94
2022/01/31 01:07:45;;;;;;;40.60;7.38;;;;;;;;;;6200862;23;20005;-94
2022/01/31 01:10:15;;;;;;;41.60;8.20;;;;;;;;;;6201196;23;20126;-94
2022/01/31 01:12:42;;;;;;;38.50;7.18;;;;;;;;;;6195101;23;19997;-94
2022/01/31 01:15:08;;;;;;;47.33;7.45;;;;;;;;;;6199717;23;20000;-94
2022/01/31 01:17:34;;;;;;;39.13;6.75;;;;;;;;;;6198386;23;20020;-94
2022/01/31 01:20:01;;;;;;;44.72;8.05;;;;;;;;;;6199602;23;20005;-94
2022/01/31 01:22:28;;;;;;;48.40;8.80;;;;;;;;;;6202478;23;20031;-94
2022/01/31 01:24:53;;;;;;;44.78;7.75;;;;;;;;;;6194883;23;20024;-94
2022/01/31 01:27:20;;;;;;;53.42;7.88;;;;;;;;;;6192496;23;20001;-94
2022/01/31 01:29:46;;;;;;;46.50;8.00;;;;;;;;;;6194199;23;20008;-94
2022/01/31 01:32:12;;;;;;;66.30;9.02;;;;;;;;;;6197978;23;20004;-94
2022/01/31 01:34:40;;;;;;;65.43;10.23;;;;;;;;;;6195439;23;20001;-94
2022/01/31 01:37:10;;;;;;;64.38;8.40;;;;;;;;;;6199425;23;19985;-94
2022/01/31 01:42:07;;;;;;;62.17;8.73;;;;;;;;;;6197716;22;20096;-94
2022/01/31 01:44:45;;;;;;;46.85;7.45;;;;;;;;;;6199340;23;20000;-94
2022/01/31 01:47:11;;;;;;;52.45;8.40;;;;;;;;;;6198660;23;19997;-94
2022/01/31 01:49:41;;;;;;;55.75;8.02;;;;;;;;;;6199625;23;20012;-94
2022/01/31 01:52:09;;;;;;;69.57;9.52;;;;;;;;;;6200509;23;20001;-94
2022/01/31 01:54:37;;;;;;;44.45;8.57;;;;;;;;;;6202326;23;20056;-94
2022/01/31 01:57:15;;;;;;;53.67;8.05;;;;;;;;;;6200213;23;20021;-93
2022/01/31 01:59:43;;;;;;;55.95;9.10;;;;;;;;;;6202569;23;20345;-94
2022/01/31 02:02:09;;;;;;;50.75;9.18;;;;;;;;;;6201258;23;19997;-94
2022/01/31 02:04:37;;;;;;;52.30;9.05;;;;;;;;;;6204275;23;20035;-94
2022/01/31 02:07:15;;;;;;;50.47;8.40;;;;;;;;;;6203194;23;20045;-94
2022/01/31 02:09:52;;;;;;;53.97;9.38;;;;;;;;;;6168578;22;20068;-94
2022/01/31 02:12:28;;;;;;;65.30;11.07;;;;;;;;;;6175072;23;20020;-94
2022/01/31 02:14:57;;;;;;;65.72;9.75;;;;;;;;;;6224766;23;20107;-93
2022/01/31 02:17:24;;;;;;;54.33;9.45;;;;;;;;;;6207703;23;20000;-94
2022/01/31 02:22:25;;;;;;;40.45;7.13;;;;;;;;;;6201971;22;20056;-95
2022/01/31 02:24:56;;;;;;;41.55;7.95;;;;;;;;;;6196296;23;20057;-94
2022/01/31 02:38:14;;;;;;;30.20;6.00;;;;;;;;;;6219396;23;20017;-94
2022/01/31 02:40:50;;;;;;;34.40;6.85;;;;;;;;;;6205334;23;20068;-94
2022/01/31 02:43:23;;;;;;;40.60;8.25;;;;;;;;;;6194908;23;20013;-94
2022/01/31 02:45:49;;;;;;;30.38;6.07;;;;;;;;;;6207614;23;20008;-94
2022/01/31 02:48:20;;;;;;;28.92;5.57;;;;;;;;;;6199114;23;20008;-94
2022/01/31 02:50:46;;;;;;;36.38;6.82;;;;;;;;;;6198517;23;20000;-94
2022/01/31 02:55:47;;;;;;;30.45;6.55;;;;;;;;;;6210468;23;20004;-94
2022/01/31 02:58:12;;;;;;;27.77;5.50;;;;;;;;;;6202253;23;20322;-94
2022/01/31 03:00:38;;;;;;;28.65;5.72;;;;;;;;;;6201840;23;20065;-94
2022/01/31 03:03:04;;;;;;;32.53;6.65;;;;;;;;;;6196199;23;19997;-93
2022/01/31 03:05:31;;;;;;;41.30;6.75;;;;;;;;;;6171678;23;20013;-93
2022/01/31 03:08:00;;;;;;;26.77;5.45;;;;;;;;;;6199742;23;19997;-94
2022/01/31 03:10:26;;;;;;;35.55;7.40;;;;;;;;;;6196708;23;20079;-94
2022/01/31 03:12:56;;;;;;;32.08;7.13;;;;;;;;;;6199184;23;20001;-93
2022/01/31 03:15:24;;;;;;;32.42;6.30;;;;;;;;;;6204253;23;20008;-93
2022/01/31 03:17:51;;;;;;;34.25;7.00;;;;;;;;;;6201178;23;20001;-94
2022/01/31 03:20:19;;;;;;;37.83;6.50;;;;;;;;;;6200917;23;20001;-94
2022/01/31 03:22:45;;;;;;;27.40;5.88;;;;;;;;;;6201136;23;20001;-94
2022/01/31 03:25:10;;;;;;;35.40;7.75;;;;;;;;;;6199178;23;20013;-94
2022/01/31 03:27:36;;;;;;;37.10;6.68;;;;;;;;;;6196365;23;20029;-94
2022/01/31 03:30:02;;;;;;;29.83;6.05;;;;;;;;;;6201370;23;20413;-94
2022/01/31 03:32:28;;;;;;;32.13;5.40;;;;;;;;;;6196665;23;19993;-94
2022/01/31 03:34:53;;;;;;;37.03;6.03;;;;;;;;;;6195917;23;20059;-94
2022/01/31 03:37:18;;;;;;;36.92;6.63;;;;;;;;;;6200073;23;19989;-94
2022/01/31 03:39:44;;;;;;;33.90;6.85;;;;;;;;;;6197847;23;19997;-94
2022/01/31 03:42:09;;;;;;;31.50;7.35;;;;;;;;;;6199749;23;20504;-94
2022/01/31 03:44:43;;;;;;;29.25;7.00;;;;;;;;;;6198863;23;20013;-94
2022/01/31 03:47:10;;;;;;;34.85;8.20;;;;;;;;;;6195043;23;20052;-94
2022/01/31 03:49:35;;;;;;;37.65;7.85;;;;;;;;;;6199775;23;19997;-94
2022/01/31 03:52:01;;;;;;;30.98;7.05;;;;;;;;;;6197522;23;20013;-93
2022/01/31 03:54:26;;;;;;;33.60;8.02;;;;;;;;;;6196938;23;20008;-94
2022/01/31 03:56:52;;;;;;;34.33;8.43;;;;;;;;;;6198211;23;20051;-94
2022/01/31 03:59:18;;;;;;;40.22;9.35;;;;;;;;;;6197889;23;20001;-94
2022/01/31 04:01:43;;;;;;;29.02;6.65;;;;;;;;;;6201762;23;20108;-94
2022/01/31 04:04:10;;;;;;;35.25;6.78;;;;;;;;;;6195271;23;20009;-94
2022/01/31 04:06:37;;;;;;;45.03;6.35;;;;;;;;;;6192820;23;20044;-94
2022/01/31 04:09:02;;;;;;;32.60;7.90;;;;;;;;;;6196255;23;20008;-94
2022/01/31 04:11:28;;;;;;;38.78;8.48;;;;;;;;;;6193521;23;20001;-94
2022/01/31 04:13:53;;;;;;;42.05;7.65;;;;;;;;;;6198280;23;20001;-94
2022/01/31 04:16:18;;;;;;;32.35;7.05;;;;;;;;;;6190525;23;20140;-94
2022/01/31 04:18:44;;;;;;;29.77;6.80;;;;;;;;;;6194108;23;20001;-93
2022/01/31 04:21:12;;;;;;;39.95;7.82;;;;;;;;;;6197186;23;20043;-94
2022/01/31 04:23:38;;;;;;;34.90;6.90;;;;;;;;;;6196971;23;20001;-94
2022/01/31 04:26:10;;;;;;;36.55;6.95;;;;;;;;;;6198058;23;20009;-94
2022/01/31 04:28:50;;;;;;;37.45;8.10;;;;;;;;;;6203914;23;20008;-94
2022/01/31 04:33:47;;;;;;;41.33;7.22;;;;;;;;;;6202517;23;20072;-94
2022/01/31 04:36:16;;;;;;;52.60;9.50;;;;;;;;;;6201350;23;20137;-94
2022/01/31 04:38:45;;;;;;;38.58;7.55;;;;;;;;;;6207954;23;20077;-94
2022/01/31 04:41:14;;;;;;;;;;;;;;;;;;6204373;23;19981;-94
2022/01/31 04:43:40;;;;;;;37.88;6.80;;;;;;;;;;6179466;23;19911;-93
2022/01/31 04:46:07;;;;;;;31.63;6.55;;;;;;;;;;6190760;23;20027;-94
2022/01/31 04:48:32;;;;;;;36.55;8.00;;;;;;;;;;6200538;23;20013;-93
2022/01/31 05:18:07;;;;;;;38.85;7.70;;;;;;;;;;6182322;22;20008;31
2022/01/31 19:43:32;;;;;;;20.77;9.07;;;;;;;;;;6185482;23;19920;-94
2022/01/31 19:46:01;;;;;;;16.27;7.65;;;;;;;;;;6164280;23;20024;-94
2022/01/31 19:54:04;;;;;;;18.02;9.13;;;;;;;;;;6194460;23;20029;-94
2022/01/31 19:56:31;;;;;;;20.13;9.05;;;;;;;;;;6194101;23;20016;-93
2022/01/31 19:59:05;;;;;;;21.88;8.48;;;;;;;;;;6191195;23;20081;-94
2022/01/31 20:01:37;;;;;;;21.52;8.40;;;;;;;;;;6192237;23;20001;-94
2022/01/31 20:04:04;;;;;;;19.80;8.95;;;;;;;;;;6195675;23;20008;-94
2022/01/31 20:06:33;;;;;;;18.05;8.85;;;;;;;;;;6192709;23;20009;-94
2022/01/31 20:09:05;;;;;;;18.10;9.32;;;;;;;;;;6190435;23;20589;-94
2022/01/31 20:11:32;;;;;;;19.55;9.20;;;;;;;;;;6192125;23;20003;-94
2022/01/31 20:14:02;;;;;;;19.85;9.05;;;;;;;;;;6198231;23;20092;-94
2022/01/31 20:16:28;;;;;;;29.88;9.63;;;;;;;;;;6194247;23;20040;-94
2022/01/31 20:18:55;;;;;;;24.23;9.63;;;;;;;;;;6194433;23;20001;-94
2022/01/31 20:21:35;;;;;;;21.10;9.45;;;;;;;;;;6213108;23;19998;-94
2022/01/31 20:32:01;;;;;;;20.08;9.57;;;;;;;;;;6210974;22;20024;-94
2022/01/31 20:42:56;;;;;;;23.30;9.00;;;;;;;;;;6167424;22;20009;-94
2022/01/31 20:45:27;;;;;;;17.08;8.15;;;;;;;;;;6186020;23;20005;-95
2022/01/31 20:48:00;;;;;;;25.38;10.13;;;;;;;;;;6198181;22;20021;-93
2022/01/31 20:53:15;;;;;;;18.42;8.00;;;;;;;;;;6201501;23;20029;-93
2022/01/31 20:55:42;;;;;;;15.43;8.30;;;;;;;;;;6211795;23;20084;-93
2022/01/31 20:58:10;;;;;;;17.20;8.02;;;;;;;;;;6212483;23;20001;-93
2022/01/31 21:03:08;;;;;;;18.73;7.88;;;;;;;;;;6201382;22;20025;-94
2022/01/31 21:05:35;;;;;;;19.33;7.88;;;;;;;;;;6184584;23;20004;-94
2022/01/31 21:08:05;;;;;;;19.73;7.43;;;;;;;;;;6212672;23;20484;-94
2022/01/31 21:10:32;;;;;;;18.48;7.28;;;;;;;;;;6210530;23;20109;-94
2022/01/31 21:13:00;;;;;;;16.48;6.30;;;;;;;;;;6210054;23;20008;-95
2022/01/31 21:15:29;;;;;;;20.38;7.30;;;;;;;;;;6210625;23;20005;-94
2022/01/31 21:17:57;;;;;;;12.55;6.38;;;;;;;;;;6209868;23;19997;-94
2022/01/31 21:20:22;;;;;;;13.00;6.18;;;;;;;;;;6209949;23;20036;-94
2022/01/31 21:22:50;;;;;;;15.73;6.22;;;;;;;;;;6208557;23;20001;-93
2022/01/31 21:25:16;;;;;;;16.05;6.40;;;;;;;;;;6208836;23;20013;-94
2022/01/31 21:27:48;;;;;;;15.15;6.78;;;;;;;;;;6208243;23;20012;-94
2022/01/31 21:30:15;;;;;;;17.40;7.20;;;;;;;;;;6207510;23;20036;-94
2022/01/31 21:32:41;;;;;;;20.77;7.65;;;;;;;;;;6208061;23;20068;-94
2022/01/31 21:35:09;;;;;;;16.20;6.85;;;;;;;;;;6207819;23;20001;-94
2022/01/31 21:37:40;;;;;;;16.92;6.88;;;;;;;;;;6208985;23;20016;-94
2022/01/31 21:40:30;;;;;;;14.85;5.88;;;;;;;;;;6209345;23;20008;-94
2022/01/31 21:43:20;;;;;;;13.15;7.18;;;;;;;;;;6209102;23;20040;-94
2022/01/31 21:48:51;;;;;;;13.38;6.68;;;;;;;;;;6166657;22;20001;-94
2022/01/31 21:56:25;;;;;;;21.30;8.60;;;;;;;;;;6195345;22;20013;-95
2022/01/31 21:58:52;;;;;;;20.42;7.65;;;;;;;;;;6211167;23;20019;-94
2022/01/31 22:01:17;;;;;;;16.95;7.47;;;;;;;;;;6206825;23;20001;-94
2022/01/31 22:03:43;;;;;;;17.67;6.70;;;;;;;;;;6207014;23;19992;-94
2022/01/31 22:06:10;;;;;;;15.30;7.78;;;;;;;;;;6206908;23;20024;-94
2022/01/31 22:08:45;;;;;;;13.43;6.45;;;;;;;;;;6206807;23;20001;-94
2022/01/31 22:13:42;;;;;;;17.15;7.03;;;;;;;;;;6196514;23;19997;-94
2022/01/31 22:16:08;;;;;;;19.70;6.53;;;;;;;;;;6196903;23;20008;-94
2022/01/31 22:18:34;;;;;;;16.85;7.35;;;;;;;;;;6203024;23;19981;-94
2022/01/31 22:21:00;;;;;;;16.50;6.75;;;;;;;;;;6199316;23;19997;-94
2022/01/31 22:23:25;;;;;;;20.30;6.65;;;;;;;;;;6192745;23;20012;-94
2022/01/31 22:25:51;;;;;;;20.02;7.43;;;;;;;;;;6201050;23;20008;-94
2022/01/31 22:28:17;;;;;;;13.57;6.10;;;;;;;;;;6198467;23;19997;-95
2022/01/31 22:30:47;;;;;;;13.93;6.07;;;;;;;;;;6203790;23;20005;-95
2022/01/31 22:33:15;;;;;;;14.73;6.10;;;;;;;;;;6203601;23;20001;-94
2022/01/31 22:35:49;;;;;;;12.35;6.00;;;;;;;;;;6204968;23;20060;-94
2022/01/31 22:38:20;;;;;;;14.93;5.57;;;;;;;;;;6195176;23;20014;-94
2022/01/31 22:40:49;;;;;;;12.35;5.75;;;;;;;;;;6193981;23;20001;-95
2022/01/31 22:45:54;;;;;;;9.38;5.05;;;;;;;;;;6200081;22;20048;-94
2022/01/31 22:48:21;;;;;;;12.23;5.00;;;;;;;;;;6192066;23;20140;-94
2022/01/31 22:50:47;;;;;;;11.13;3.95;;;;;;;;;;6172251;23;20101;-94
2022/01/31 22:53:18;;;;;;;8.68;3.20;;;;;;;;;;6172778;23;20005;-94
2022/01/31 22:55:49;;;;;;;8.68;3.17;;;;;;;;;;6170714;23;19981;-94
2022/01/31 22:58:26;;;;;;;10.10;3.05;;;;;;;;;;6170302;23;20077;-94
2022/01/31 23:01:00;;;;;;;9.98;2.30;;;;;;;;;;6168425;23;19981;-94
2022/01/31 23:03:29;;;;;;;11.88;3.55;;;;;;;;;;6173166;23;20009;-94
2022/01/31 23:05:55;;;;;;;13.52;2.58;;;;;;;;;;6172582;23;20037;-94
2022/01/31 23:08:21;;;;;;;13.15;2.50;;;;;;;;;;6167889;23;20036;-93
2022/01/31 23:10:47;;;;;;;10.85;2.00;;;;;;;;;;6150996;23;20005;-94
2022/01/31 23:13:18;;;;;;;17.52;2.25;;;;;;;;;;6173470;23;20001;-93
2022/01/31 23:15:47;;;;;;;11.57;2.78;;;;;;;;;;6162120;23;20005;-93
2022/01/31 23:18:19;;;;;;;14.15;2.85;;;;;;;;;;6165345;23;20006;-94
2022/01/31 23:44:58;;;;;;;11.10;2.03;;;;;;;;;;6204723;23;20012;-95
2022/01/31 23:55:28;;;;;;;13.18;2.50;;;;;;;;;;6198046;23;20005;-93
